createdAt,value
2023-01-04T04:01:35.213Z,104.47
2023-01-04T04:04:58.528Z,733.03
2023-01-04T04:08:20.009Z,1999.90
2023-01-04T04:11:31.684Z,1999.90
2023-01-04T04:14:42.426Z,1365.90
2023-01-04T04:17:53.148Z,1360.47
2023-01-04T04:21:05.215Z,86.70
2023-01-04T04:24:19.467Z,76.70
2023-01-04T04:27:30.392Z,1356.90
2023-01-04T04:30:41.323Z,1375.77
2023-01-04T04:33:52.073Z,1363.87
2023-01-04T04:37:03.946Z,712.87
2023-01-04T04:40:40.374Z,166.77
2023-01-04T04:43:51.155Z,65.50
2023-01-04T04:47:01.907Z,64.93
2023-01-04T04:50:12.926Z,84.17
2023-01-04T04:53:24.832Z,54.33
2023-01-04T04:56:37.044Z,1999.90
2023-01-04T04:59:47.716Z,62.60
2023-01-04T05:03:00.549Z,57.70
2023-01-04T05:06:11.387Z,90.73
2023-01-04T05:09:23.426Z,75.20
2023-01-04T05:12:44.895Z,181.87
2023-01-04T05:15:55.421Z,67.53
2023-01-04T05:19:06.221Z,80.33
2023-01-04T05:22:16.928Z,92.97
2023-01-04T05:25:29.168Z,80.83
2023-01-04T05:28:39.842Z,160.63
2023-01-04T05:31:49.776Z,92.00
2023-01-04T05:35:00.456Z,70.13
2023-01-04T05:38:11.198Z,106.97
2023-01-04T05:41:34.137Z,92.40
2023-01-04T05:44:44.860Z,77.70
2023-01-04T05:47:55.919Z,186.93
2023-01-04T05:51:06.609Z,133.37
2023-01-04T05:54:21.287Z,61.63
2023-01-04T05:57:33.709Z,136.80
2023-01-04T06:38:58.824Z,1999.90
2023-01-04T06:42:30.492Z,1999.90
2023-01-04T06:45:41.141Z,1999.90
2023-01-04T06:48:53.872Z,1999.90
2023-01-04T06:52:05.584Z,1999.90
2023-01-04T06:55:17.842Z,1999.90
2023-01-04T06:58:29.211Z,1999.90
2023-01-04T07:01:39.825Z,1999.90
2023-01-04T07:04:51.320Z,1999.90
2023-01-04T07:08:07.984Z,1999.90
2023-01-04T07:11:21.260Z,1999.90
2023-01-04T07:14:32.507Z,1999.90
2023-01-04T07:17:43.847Z,1999.90
2023-01-04T07:20:54.606Z,1999.90
2023-01-04T07:24:05.424Z,1999.90
2023-01-04T07:27:17.722Z,1999.90
2023-01-04T07:30:28.341Z,1999.90
2023-01-04T07:33:39.298Z,1999.90
2023-01-04T07:36:50.928Z,1999.90
2023-01-04T07:40:01.773Z,1999.90
2023-01-04T07:43:16.900Z,1999.90
2023-01-04T07:46:28.880Z,1999.90
2023-01-04T07:49:39.746Z,1999.90
2023-01-04T07:52:50.347Z,1999.90
2023-01-04T07:56:01.625Z,1999.90
2023-01-04T07:59:15.451Z,1999.90
2023-01-04T08:02:25.902Z,1999.90
2023-01-04T08:05:36.687Z,1999.90
2023-01-04T08:08:47.422Z,1999.90
2023-01-04T08:11:58.602Z,1999.90
2023-01-04T08:15:10.744Z,1999.90
2023-01-04T08:18:21.831Z,1999.90
2023-01-04T08:21:35.815Z,1999.90
2023-01-04T08:24:46.461Z,1999.90
2023-01-04T08:27:57.123Z,1999.90
2023-01-04T08:36:08.329Z,1999.90
2023-01-04T08:39:21.909Z,1999.90
2023-01-04T08:42:32.546Z,1999.90
2023-01-04T08:50:44.783Z,1999.90
2023-01-04T08:53:56.970Z,1999.90
2023-01-04T08:57:07.708Z,1999.90
2023-01-04T09:00:21.767Z,1999.90
2023-01-04T09:03:33.004Z,1999.90
2023-01-04T09:06:43.199Z,1999.90
2023-01-04T09:13:26.472Z,239.13
2023-01-04T09:16:37.379Z,1999.90
2023-01-04T09:19:47.166Z,1999.90
2023-01-04T09:22:58.239Z,1999.90
2023-01-04T09:29:58.184Z,795.70
2023-01-04T09:33:07.952Z,1999.90
2023-01-04T09:36:19.171Z,736.77
2023-01-04T09:39:30.603Z,1999.90
2023-01-04T09:42:45.224Z,242.87
2023-01-04T09:46:09.121Z,1999.90
2023-01-04T09:49:23.872Z,1999.90
2023-01-04T09:52:44.525Z,145.87
2023-01-04T09:55:57.201Z,132.27
2023-01-04T09:59:11.881Z,119.40
2023-01-04T10:02:30.489Z,158.73
2023-01-04T10:05:42.035Z,124.57
2023-01-04T10:08:51.855Z,143.53
2023-01-04T10:12:16.718Z,167.17
2023-01-04T10:15:36.426Z,114.17
2023-01-04T10:19:36.952Z,219.90
2023-01-04T10:22:31.878Z,88.63
2023-01-04T10:25:52.623Z,1999.90
2023-01-04T10:29:25.065Z,1999.90
2023-01-04T10:32:41.307Z,1999.90
2023-01-04T10:35:53.600Z,1999.90
2023-01-04T10:39:05.941Z,1999.90
2023-01-04T10:42:22.231Z,1999.90
2023-01-04T10:45:41.232Z,1999.90
2023-01-04T10:49:00.116Z,1999.90
2023-01-04T10:52:16.971Z,1999.90
2023-01-04T10:55:35.133Z,1999.90
2023-01-04T10:58:51.116Z,1999.90
2023-01-04T11:02:09.408Z,162.03
2023-01-04T11:05:25.588Z,803.43
2023-01-04T11:08:43.384Z,156.27
2023-01-04T11:11:56.138Z,1999.90
2023-01-04T11:15:06.419Z,1999.90
2023-01-04T11:18:17.662Z,166.70
2023-01-04T11:21:32.470Z,100.53
2023-01-04T11:25:07.605Z,85.10
2023-01-04T11:28:20.595Z,191.00
2023-01-04T11:31:38.052Z,83.20
2023-01-04T11:34:52.111Z,224.00
2023-01-04T11:38:12.532Z,91.93
2023-01-04T11:41:23.905Z,108.93
2023-01-04T11:44:35.293Z,143.97
2023-01-04T11:47:49.904Z,125.73
2023-01-04T11:51:00.029Z,160.30
2023-01-04T11:54:21.063Z,139.33
2023-01-04T11:57:32.092Z,69.40
2023-01-04T12:00:51.974Z,106.47
2023-01-04T12:04:02.161Z,69.53
2023-01-04T12:07:25.679Z,75.17
2023-01-04T12:10:35.597Z,88.33
2023-01-04T12:13:46.898Z,90.27
2023-01-04T12:17:03.374Z,88.97
2023-01-04T12:20:19.576Z,151.10
2023-01-04T12:23:30.707Z,123.77
2023-01-04T12:26:42.663Z,1999.90
2023-01-04T12:30:00.152Z,1999.90
2023-01-04T12:33:36.652Z,1999.90
2023-01-04T12:37:04.766Z,1999.90
2023-01-04T12:40:38.803Z,1999.90
2023-01-04T12:43:49.994Z,1999.90
2023-01-04T12:47:12.036Z,1999.90
2023-01-04T12:50:26.498Z,1999.90
2023-01-04T12:53:50.213Z,1999.90
2023-01-04T12:57:24.694Z,1999.90
2023-01-04T13:01:05.138Z,1999.90
2023-01-04T13:04:40.620Z,1999.90
2023-01-04T13:07:52.310Z,1999.90
2023-01-04T13:11:05.063Z,1999.90
2023-01-04T13:14:22.741Z,1999.90
2023-01-04T13:17:39.256Z,93.03
2023-01-04T13:20:51.219Z,55.07
2023-01-04T13:24:03.777Z,49.37
2023-01-04T13:27:18.461Z,62.90
2023-01-04T13:30:31.973Z,55.30
2023-01-04T13:33:46.774Z,112.67
2023-01-04T13:37:06.999Z,72.57
2023-01-04T13:40:24.833Z,154.53
2023-01-04T13:43:52.836Z,123.67
2023-01-04T13:47:02.689Z,137.77
2023-01-04T13:50:28.459Z,111.10
2023-01-04T13:53:39.427Z,145.63
2023-01-04T13:56:55.242Z,115.63
2023-01-04T14:00:08.312Z,85.97
2023-01-04T14:03:31.531Z,64.37
2023-01-04T14:06:44.724Z,122.97
2023-01-04T14:09:58.431Z,97.90
2023-01-04T14:13:09.991Z,93.00
2023-01-04T14:16:20.269Z,79.20
2023-01-04T14:19:43.565Z,91.30
2023-01-04T14:22:56.169Z,63.70
2023-01-04T14:26:07.396Z,69.90
2023-01-04T14:29:23.997Z,82.53
2023-01-04T14:32:33.706Z,59.97
2023-01-04T14:35:48.984Z,87.53
2023-01-04T14:39:11.206Z,89.57
2023-01-04T14:42:28.465Z,53.93
2023-01-04T14:45:38.111Z,67.13
2023-01-04T14:48:47.983Z,698.50
2023-01-04T14:51:58.882Z,1999.90
2023-01-04T14:55:09.155Z,1999.90
2023-01-04T14:58:20.112Z,1999.90
2023-01-04T15:01:30.070Z,1999.90
2023-01-04T15:04:40.275Z,1999.90
2023-01-04T15:07:50.178Z,1999.90
2023-01-04T15:11:00.536Z,1999.90
2023-01-04T15:14:11.984Z,1999.90
2023-01-04T15:17:21.667Z,1999.90
2023-01-04T15:20:31.375Z,84.73
2023-01-04T15:23:41.536Z,1999.90
2023-01-04T15:26:51.186Z,1999.90
2023-01-04T15:30:02.257Z,1999.90
2023-01-04T15:33:11.935Z,1999.90
2023-01-04T15:36:24.002Z,1999.90
2023-01-04T15:39:33.949Z,1999.90
2023-01-04T15:42:57.859Z,1999.90
2023-01-04T15:46:09.787Z,1999.90
2023-01-04T15:49:19.516Z,1999.90
2023-01-04T15:52:29.217Z,1999.90
2023-01-04T15:55:39.318Z,1999.90
2023-01-04T15:58:53.464Z,1999.90
2023-01-04T16:02:04.707Z,1999.90
2023-01-04T16:05:16.145Z,1999.90
2023-01-04T16:08:25.884Z,1999.90
2023-01-04T16:11:35.756Z,1999.90
2023-01-04T16:14:45.538Z,1999.90
2023-01-04T16:17:56.436Z,1999.90
2023-01-04T16:21:07.756Z,1999.90
2023-01-04T16:24:45.352Z,1999.90
2023-01-04T16:27:47.034Z,1999.90
2023-01-04T16:30:57.004Z,1999.90
2023-01-04T16:34:08.034Z,1999.90
2023-01-04T16:37:18.123Z,1999.90
2023-01-04T16:40:27.716Z,1999.90
2023-01-04T16:43:45.120Z,1999.90
2023-01-04T16:46:54.957Z,1999.90
2023-01-04T16:50:07.222Z,1999.90
2023-01-04T16:53:16.958Z,1999.90
2023-01-04T16:56:26.749Z,1999.90
2023-01-04T16:59:36.475Z,1999.90
2023-01-04T17:02:46.296Z,1999.90
2023-01-04T17:05:57.271Z,1999.90
2023-01-04T17:09:08.842Z,1999.90
2023-01-04T17:12:46.295Z,1999.90
2023-01-04T17:15:48.259Z,1999.90
2023-01-04T17:18:57.996Z,1999.90
2023-01-04T17:22:09.133Z,1999.90
2023-01-04T17:25:19.098Z,1999.90
2023-01-04T17:28:28.840Z,1999.90
2023-01-04T17:31:40.629Z,1999.90
2023-01-04T17:34:50.537Z,1999.90
2023-01-04T17:38:01.563Z,1999.90
2023-01-04T17:41:13.648Z,1999.90
2023-01-04T17:44:23.317Z,1999.90
2023-01-04T17:47:33.128Z,1999.90
2023-01-04T17:50:42.825Z,1999.90
2023-01-04T17:53:57.847Z,1999.90
2023-01-04T17:57:07.569Z,1999.90
2023-01-04T18:00:17.644Z,1999.90
2023-01-04T18:03:27.364Z,1999.90
2023-01-04T18:06:37.928Z,1999.90
2023-01-04T18:09:48.837Z,1999.90
2023-01-04T18:12:58.486Z,1999.90
2023-01-04T18:16:23.942Z,1999.90
2023-01-04T18:19:34.956Z,1999.90
2023-01-04T18:22:44.744Z,1999.90
2023-01-04T18:25:55.719Z,1999.90
2023-01-04T18:29:05.493Z,1999.90
2023-01-04T18:32:15.291Z,1999.90
2023-01-04T18:35:25.139Z,1999.90
2023-01-04T18:38:37.047Z,1999.90
2023-01-04T18:41:48.859Z,1999.90
2023-01-04T18:44:59.866Z,1999.90
2023-01-04T18:48:10.694Z,1999.90
2023-01-04T18:51:22.119Z,1999.90
2023-01-04T18:54:33.128Z,1999.90
2023-01-04T18:57:54.743Z,1999.90
2023-01-04T19:01:08.736Z,1999.90
2023-01-04T19:04:20.725Z,1999.90
2023-01-04T19:07:31.794Z,1999.90
2023-01-04T19:10:43.049Z,1999.90
2023-01-04T19:13:55.687Z,1999.90
2023-01-04T19:17:06.321Z,1999.90
2023-01-04T19:20:17.594Z,1999.90
2023-01-04T19:23:28.987Z,1999.90
2023-01-04T19:26:40.359Z,1999.90
2023-01-04T19:29:53.863Z,1999.90
2023-01-04T19:33:05.379Z,1999.90
2023-01-04T19:36:19.508Z,1999.90
2023-01-04T19:39:31.108Z,1999.90
2023-01-04T19:42:43.814Z,1999.90
2023-01-04T19:45:56.371Z,1999.90
2023-01-04T19:49:12.726Z,1999.90
2023-01-04T19:52:25.468Z,1999.90
2023-01-04T19:55:36.612Z,1999.90
2023-01-04T19:58:47.959Z,1999.90
2023-01-04T20:02:00.323Z,1999.90
2023-01-04T20:05:11.904Z,1999.90
2023-01-04T20:08:23.687Z,1999.90
2023-01-04T20:11:35.098Z,1999.90
2023-01-04T20:14:47.276Z,1999.90
2023-01-04T20:17:59.780Z,1999.90
2023-01-04T20:21:11.834Z,1999.90
2023-01-04T20:24:23.302Z,1999.90
2023-01-04T20:27:34.638Z,1999.90
2023-01-04T20:30:47.128Z,1999.90
2023-01-04T20:33:59.381Z,1999.90
2023-01-04T20:37:10.564Z,1999.90
2023-01-04T20:40:21.644Z,1999.90
2023-01-04T20:43:38.327Z,1999.90
2023-01-04T20:46:49.281Z,1999.90
2023-01-04T20:50:01.982Z,1999.90
2023-01-04T20:53:13.711Z,1999.90
2023-01-04T20:56:25.879Z,1999.90
2023-01-04T20:59:35.671Z,1999.90
2023-01-04T21:02:46.793Z,1999.90
